createdAt,value
2022-08-07T00:01:44.306Z,23.61
2022-08-07T00:04:15.439Z,23.66
2022-08-07T00:06:51.344Z,23.65
2022-08-07T00:09:22.586Z,23.61
2022-08-07T00:11:56.179Z,23.57
2022-08-07T00:14:31.511Z,23.52
2022-08-07T00:16:59.779Z,23.51
2022-08-07T00:20:00.360Z,23.50
2022-08-07T00:22:24.729Z,23.45
2022-08-07T00:25:06.949Z,23.39
2022-08-07T00:27:51.663Z,23.34
2022-08-07T00:30:26.959Z,23.34
2022-08-07T00:32:57.255Z,23.34
2022-08-07T00:35:26.348Z,23.31
2022-08-07T00:37:54.002Z,23.25
2022-08-07T00:40:36.188Z,23.16
2022-08-07T00:43:10.842Z,23.09
2022-08-07T00:45:56.984Z,23.09
2022-08-07T00:48:31.054Z,23.10
2022-08-07T00:51:01.357Z,23.10
2022-08-07T00:53:39.036Z,23.08
2022-08-07T00:56:16.787Z,23.06
2022-08-07T00:58:49.465Z,23.03
2022-08-07T01:01:18.535Z,23.05
2022-08-07T01:03:57.127Z,23.10
2022-08-07T01:06:30.727Z,23.11
2022-08-07T01:09:03.002Z,23.07
2022-08-07T01:12:09.271Z,23.01
2022-08-07T01:14:28.279Z,22.96
2022-08-07T01:16:57.057Z,22.95
2022-08-07T01:19:25.795Z,22.94
2022-08-07T01:21:55.287Z,22.90
2022-08-07T01:24:30.699Z,22.84
2022-08-07T01:27:00.261Z,22.73
2022-08-07T01:29:31.213Z,22.65
2022-08-07T01:32:00.283Z,22.60
2022-08-07T01:34:33.065Z,22.57
2022-08-07T01:37:09.767Z,22.54
2022-08-07T01:39:40.482Z,22.49
2022-08-07T01:42:39.847Z,22.43
2022-08-07T01:45:10.002Z,22.38
2022-08-07T01:48:19.472Z,22.36
2022-08-07T01:50:40.274Z,22.34
2022-08-07T01:53:21.648Z,22.29
2022-08-07T01:56:28.885Z,22.19
2022-08-07T01:59:18.547Z,22.08
2022-08-07T02:01:59.747Z,21.94
2022-08-07T02:04:55.743Z,21.88
2022-08-07T02:07:35.768Z,21.86
2022-08-07T02:10:05.085Z,21.78
2022-08-07T02:12:40.108Z,21.70
2022-08-07T02:15:10.608Z,21.63
2022-08-07T02:17:41.051Z,21.58
2022-08-07T02:20:23.894Z,21.54
2022-08-07T02:23:00.298Z,21.49
2022-08-07T02:26:10.505Z,21.41
2022-08-07T02:28:25.468Z,21.31
2022-08-07T02:30:56.460Z,21.28
2022-08-07T02:33:41.956Z,21.28
2022-08-07T02:36:28.345Z,21.25
2022-08-07T02:38:59.309Z,21.21
2022-08-07T02:41:33.350Z,21.17
2022-08-07T02:44:05.167Z,21.17
2022-08-07T02:46:32.628Z,21.17
2022-08-07T02:49:00.291Z,21.11
2022-08-07T02:51:42.921Z,21.04
2022-08-07T02:54:18.468Z,20.97
2022-08-07T02:56:47.133Z,20.93
2022-08-07T02:59:17.272Z,20.91
2022-08-07T03:01:47.624Z,20.91
2022-08-07T03:04:20.776Z,20.88
2022-08-07T03:06:48.517Z,20.82
2022-08-07T03:09:43.235Z,20.77
2022-08-07T03:12:06.908Z,20.76
2022-08-07T03:14:36.614Z,20.77
2022-08-07T03:17:04.882Z,20.75
2022-08-07T03:19:37.106Z,20.71
2022-08-07T03:22:06.357Z,20.67
2022-08-07T03:24:34.679Z,20.62
2022-08-07T03:27:05.569Z,20.62
2022-08-07T03:29:51.104Z,20.63
2022-08-07T03:32:23.931Z,20.60
2022-08-07T03:35:00.820Z,20.54
2022-08-07T03:37:46.383Z,20.47
2022-08-07T03:40:23.962Z,20.45
2022-08-07T03:42:59.324Z,20.44
2022-08-07T03:45:30.977Z,20.40
2022-08-07T03:48:11.498Z,20.37
2022-08-07T03:50:39.144Z,20.34
2022-08-07T03:53:13.831Z,20.33
2022-08-07T03:55:57.978Z,20.34
2022-08-07T03:58:33.158Z,20.32
2022-08-07T04:01:04.423Z,20.28
2022-08-07T04:03:49.895Z,20.22
2022-08-07T04:06:36.176Z,20.22
2022-08-07T04:09:06.053Z,20.23
2022-08-07T04:12:26.826Z,20.19
2022-08-07T04:14:39.065Z,20.13
2022-08-07T04:17:20.191Z,20.10
2022-08-07T04:19:54.901Z,20.09
2022-08-07T04:22:29.266Z,20.11
2022-08-07T04:25:01.359Z,20.11
2022-08-07T04:27:35.497Z,20.08
2022-08-07T04:30:11.778Z,20.05
2022-08-07T04:32:58.843Z,20.07
2022-08-07T04:35:35.102Z,20.10
2022-08-07T04:38:09.111Z,20.10
2022-08-07T04:40:43.915Z,20.07
2022-08-07T04:44:10.285Z,20.03
2022-08-07T04:47:03.873Z,19.98
2022-08-07T04:50:05.264Z,20.01
2022-08-07T04:52:51.304Z,20.03
2022-08-07T04:58:11.260Z,19.99
2022-08-07T04:58:48.788Z,19.93
2022-08-07T05:01:31.765Z,19.86
2022-08-07T05:04:17.934Z,19.82
2022-08-07T05:06:57.354Z,19.78
2022-08-07T05:09:45.871Z,19.71
2022-08-07T05:12:26.995Z,19.59
2022-08-07T05:15:23.544Z,19.47
2022-08-07T05:18:08.729Z,19.36
2022-08-07T05:20:45.213Z,19.34
2022-08-07T05:23:31.132Z,19.34
2022-08-07T05:26:13.471Z,19.29
2022-08-07T05:28:50.036Z,19.18
2022-08-07T05:31:20.762Z,19.09
2022-08-07T05:34:01.376Z,19.01
2022-08-07T05:36:35.268Z,18.97
2022-08-07T05:40:06.745Z,18.96
2022-08-07T05:42:02.613Z,18.94
2022-08-07T05:44:34.753Z,18.91
2022-08-07T05:47:11.794Z,18.88
2022-08-07T05:49:51.171Z,18.85
2022-08-07T05:52:20.410Z,18.89
2022-08-07T05:54:58.708Z,18.93
2022-08-07T05:57:29.883Z,18.92
2022-08-07T05:59:59.165Z,18.90
2022-08-07T06:02:39.993Z,18.85
2022-08-07T06:05:15.749Z,18.78
2022-08-07T06:08:13.835Z,18.72
2022-08-07T06:10:39.081Z,18.70
2022-08-07T06:13:13.289Z,18.68
2022-08-07T06:15:42.748Z,18.60
2022-08-07T06:18:14.329Z,18.53
2022-08-07T06:20:49.633Z,18.50
2022-08-07T06:23:46.338Z,18.47
2022-08-07T06:26:07.209Z,18.45
2022-08-07T06:28:34.538Z,18.51
2022-08-07T06:31:01.903Z,18.58
2022-08-07T06:33:33.181Z,18.60
2022-08-07T06:36:13.326Z,18.60
2022-08-07T06:38:59.379Z,18.62
2022-08-07T06:42:01.833Z,18.60
2022-08-07T06:47:57.255Z,18.59
2022-08-07T06:50:27.559Z,18.60
2022-08-07T06:52:58.784Z,18.65
2022-08-07T06:55:53.723Z,18.69
2022-08-07T06:58:21.447Z,18.71
2022-08-07T07:00:57.387Z,18.71
2022-08-07T07:03:39.662Z,18.70
2022-08-07T07:06:12.169Z,18.70
2022-08-07T07:08:39.974Z,18.71
2022-08-07T07:12:08.937Z,18.77
2022-08-07T07:14:02.508Z,18.84
2022-08-07T07:16:33.482Z,18.83
2022-08-07T07:19:34.046Z,18.83
2022-08-07T07:22:05.328Z,18.80
2022-08-07T07:24:56.780Z,18.78
2022-08-07T07:27:35.696Z,18.76
2022-08-07T07:30:32.680Z,18.70
2022-08-07T07:33:04.043Z,18.68
2022-08-07T07:35:33.379Z,18.72
2022-08-07T07:38:02.910Z,18.77
2022-08-07T07:40:33.347Z,18.79
2022-08-07T07:43:14.982Z,18.80
2022-08-07T07:46:53.464Z,18.79
2022-08-07T07:48:36.038Z,18.77
2022-08-07T07:51:07.839Z,18.77
2022-08-07T07:53:48.135Z,18.78
2022-08-07T07:56:18.770Z,18.85
2022-08-07T07:59:06.086Z,18.92
2022-08-07T08:02:02.945Z,18.95
2022-08-07T08:04:25.686Z,18.96
2022-08-07T08:06:54.820Z,18.96
2022-08-07T08:09:24.663Z,18.98
2022-08-07T08:12:02.576Z,18.97
2022-08-07T08:14:34.395Z,18.96
2022-08-07T08:17:56.181Z,18.95
2022-08-07T08:20:18.508Z,19.01
2022-08-07T08:23:01.110Z,19.10
2022-08-07T08:25:49.333Z,19.16
2022-08-07T08:28:23.914Z,19.18
2022-08-07T08:31:05.159Z,19.17
2022-08-07T08:33:34.591Z,19.17
2022-08-07T08:36:02.444Z,19.16
2022-08-07T08:38:40.431Z,19.13
2022-08-07T08:41:19.269Z,19.10
2022-08-07T08:43:55.847Z,19.12
2022-08-07T08:46:50.003Z,19.17
2022-08-07T08:49:33.364Z,19.20
2022-08-07T08:52:36.089Z,19.19
2022-08-07T08:55:55.266Z,19.19
2022-08-07T08:58:29.539Z,19.21
2022-08-07T09:01:02.062Z,19.21
2022-08-07T09:04:07.160Z,19.19
2022-08-07T09:06:37.953Z,19.18
2022-08-07T09:09:36.551Z,19.23
2022-08-07T09:12:42.241Z,19.27
2022-08-07T09:16:25.763Z,19.27
2022-08-07T09:18:41.719Z,19.25
2022-08-07T09:22:22.706Z,19.21
2022-08-07T09:24:56.089Z,19.16
2022-08-07T09:28:00.810Z,19.10
2022-08-07T09:30:46.710Z,19.06
2022-08-07T09:33:41.180Z,19.10
2022-08-07T09:36:35.735Z,19.13
2022-08-07T09:39:18.021Z,19.11
2022-08-07T09:42:24.806Z,19.10
2022-08-07T09:47:50.040Z,19.06
2022-08-07T09:48:19.545Z,19.02
2022-08-07T09:52:10.806Z,18.95
2022-08-07T09:54:07.563Z,18.90
2022-08-07T09:57:02.861Z,18.93
2022-08-07T09:59:44.732Z,18.94
2022-08-07T10:03:08.477Z,18.93
2022-08-07T10:06:11.815Z,18.92
2022-08-07T10:09:15.368Z,18.91
2022-08-07T10:12:15.152Z,18.89
2022-08-07T10:15:06.518Z,18.88
2022-08-07T10:18:01.735Z,18.93
2022-08-07T10:20:56.366Z,18.96
2022-08-07T10:24:04.876Z,18.97
2022-08-07T10:27:19.564Z,18.95
2022-08-07T10:30:12.424Z,18.94
2022-08-07T10:33:02.210Z,18.95
2022-08-07T10:35:55.637Z,18.98
2022-08-07T10:38:51.025Z,19.05
2022-08-07T10:41:51.861Z,19.12
2022-08-07T10:44:33.814Z,19.15
2022-08-07T10:47:53.929Z,19.15
2022-08-07T10:50:25.712Z,19.15
2022-08-07T10:53:21.705Z,19.12
2022-08-07T10:56:30.078Z,19.09
2022-08-07T10:59:13.614Z,19.14
2022-08-07T11:02:05.438Z,19.19
2022-08-07T11:05:10.499Z,19.22
2022-08-07T11:07:59.326Z,19.21
2022-08-07T11:10:57.807Z,19.20
2022-08-07T11:14:45.607Z,19.20
2022-08-07T11:17:12.580Z,19.21
2022-08-07T11:19:44.375Z,19.26
2022-08-07T11:22:37.107Z,19.33
2022-08-07T11:25:17.061Z,19.39
2022-08-07T11:28:08.016Z,19.41
2022-08-07T11:30:44.255Z,19.44
2022-08-07T11:33:53.469Z,19.44
2022-08-07T11:37:02.718Z,19.43
2022-08-07T11:39:59.945Z,19.44
2022-08-07T11:42:57.941Z,19.55
2022-08-07T11:45:35.964Z,19.71
2022-08-07T11:48:29.716Z,19.89
2022-08-07T11:51:03.884Z,20.00
2022-08-07T11:54:02.356Z,20.02
2022-08-07T11:56:53.218Z,20.00
2022-08-07T12:00:11.440Z,19.95
2022-08-07T12:02:31.120Z,19.89
2022-08-07T12:05:47.232Z,19.90
2022-08-07T12:08:34.881Z,19.89
2022-08-07T12:11:21.429Z,19.83
2022-08-07T12:14:16.373Z,19.78
2022-08-07T12:16:55.639Z,19.78
2022-08-07T12:19:35.569Z,19.77
2022-08-07T12:22:38.467Z,19.73
2022-08-07T12:26:21.540Z,19.67
2022-08-07T12:28:44.762Z,19.60
2022-08-07T12:32:01.902Z,19.56
2022-08-07T12:34:33.473Z,19.66
2022-08-07T12:37:01.272Z,19.80
2022-08-07T12:39:42.682Z,19.95
2022-08-07T12:42:13.316Z,20.07
2022-08-07T12:44:42.904Z,20.13
2022-08-07T12:47:37.498Z,20.14
2022-08-07T12:50:48.713Z,20.11
2022-08-07T12:54:23.936Z,20.06
2022-08-07T12:56:35.397Z,20.02
2022-08-07T12:59:08.370Z,20.01
2022-08-07T13:01:48.901Z,19.99
2022-08-07T13:05:01.041Z,20.03
2022-08-07T13:08:12.773Z,20.10
2022-08-07T13:10:52.895Z,20.11
2022-08-07T13:13:58.284Z,20.09
2022-08-07T13:16:46.691Z,20.02
2022-08-07T13:19:56.286Z,19.95
2022-08-07T13:22:31.845Z,19.89
2022-08-07T13:25:03.539Z,19.82
2022-08-07T13:28:11.459Z,19.77
2022-08-07T13:30:48.770Z,19.79
2022-08-07T13:34:30.970Z,19.81
2022-08-07T13:36:22.460Z,19.80
2022-08-07T13:39:01.779Z,19.78
2022-08-07T13:41:48.937Z,19.78
2022-08-07T13:44:26.635Z,19.79
2022-08-07T13:47:04.906Z,19.80
2022-08-07T13:50:34.579Z,19.78
2022-08-07T13:52:40.773Z,19.76
2022-08-07T13:55:26.693Z,19.83
2022-08-07T13:58:28.026Z,19.91
2022-08-07T14:01:07.989Z,19.96
2022-08-07T14:04:06.857Z,19.99
2022-08-07T14:06:46.085Z,20.00
2022-08-07T14:10:02.274Z,20.02
2022-08-07T14:12:49.081Z,20.00
2022-08-07T14:15:23.693Z,19.95
2022-08-07T14:18:15.801Z,19.89
2022-08-07T14:20:48.708Z,19.82
2022-08-07T14:23:31.552Z,19.80
2022-08-07T14:26:28.390Z,19.83
2022-08-07T14:29:04.291Z,19.82
2022-08-07T14:31:42.567Z,19.79
2022-08-07T14:34:27.196Z,19.74
2022-08-07T14:36:58.098Z,19.69
2022-08-07T14:40:17.120Z,19.64
2022-08-07T14:42:22.180Z,19.60
2022-08-07T14:44:54.068Z,19.59
2022-08-07T14:47:27.902Z,19.60
2022-08-07T14:49:59.178Z,19.59
2022-08-07T14:52:28.887Z,19.56
2022-08-07T14:54:56.888Z,19.48
2022-08-07T14:57:54.450Z,19.41
2022-08-07T15:00:20.601Z,19.33
2022-08-07T15:03:19.451Z,19.24
2022-08-07T15:05:55.214Z,19.23
2022-08-07T15:08:49.786Z,19.25
2022-08-07T15:11:48.899Z,19.22
2022-08-07T15:14:34.028Z,19.17
2022-08-07T15:17:24.218Z,19.08
2022-08-07T15:20:33.205Z,19.00
2022-08-07T15:25:39.526Z,18.98
2022-08-07T15:28:32.907Z,18.93
2022-08-07T15:31:05.603Z,18.87
2022-08-07T15:33:42.656Z,18.82
2022-08-07T15:36:11.077Z,18.79
2022-08-07T15:38:51.450Z,18.81
2022-08-07T15:42:44.857Z,18.87
2022-08-07T15:44:19.177Z,18.88
2022-08-07T15:46:52.375Z,18.84
2022-08-07T15:52:15.789Z,18.79
2022-08-07T15:54:44.688Z,18.76
2022-08-07T15:57:39.922Z,18.79
2022-08-07T16:00:31.967Z,18.87
2022-08-07T16:02:59.613Z,18.88
2022-08-07T16:05:31.388Z,18.88
2022-08-07T16:08:32.990Z,18.88
2022-08-07T16:11:04.326Z,18.89
2022-08-07T16:13:58.502Z,18.89
2022-08-07T16:16:49.727Z,18.94
2022-08-07T16:19:59.619Z,19.00
2022-08-07T16:22:54.849Z,19.01
2022-08-07T16:25:56.787Z,18.99
2022-08-07T16:30:05.380Z,18.97
2022-08-07T16:31:57.947Z,18.94
2022-08-07T16:34:45.402Z,19.01
2022-08-07T16:38:04.209Z,19.07
2022-08-07T16:40:28.443Z,19.08
2022-08-07T16:43:04.512Z,19.07
2022-08-07T16:46:47.405Z,19.02
2022-08-07T16:50:20.720Z,18.98
2022-08-07T16:52:50.650Z,19.03
2022-08-07T16:55:15.305Z,19.05
2022-08-07T16:58:01.492Z,19.03
2022-08-07T17:00:41.520Z,18.98
2022-08-07T17:03:17.528Z,18.93
2022-08-07T17:06:26.534Z,18.90
2022-08-07T17:09:14.278Z,18.93
2022-08-07T17:12:33.365Z,18.97
2022-08-07T17:15:16.992Z,18.95
2022-08-07T17:17:47.852Z,18.89
2022-08-07T17:20:29.964Z,18.82
2022-08-07T17:23:01.148Z,18.75
2022-08-07T17:25:51.194Z,18.73
2022-08-07T17:28:38.199Z,18.73
2022-08-07T17:31:16.689Z,18.70
2022-08-07T17:34:33.342Z,18.64
2022-08-07T17:37:09.081Z,18.54
2022-08-07T17:40:11.663Z,18.45
2022-08-07T17:42:58.500Z,18.41
2022-08-07T17:45:40.773Z,18.40
2022-08-07T17:48:31.092Z,18.36
2022-08-07T17:51:59.767Z,18.31
2022-08-07T17:54:29.816Z,18.24
2022-08-07T17:57:19.036Z,18.19
2022-08-07T17:59:53.492Z,18.21
2022-08-07T18:02:56.563Z,18.23
2022-08-07T18:06:03.523Z,18.21
2022-08-07T18:08:32.545Z,18.14
2022-08-07T18:12:17.625Z,18.09
2022-08-07T18:14:24.686Z,18.11
2022-08-07T18:17:05.288Z,18.14
2022-08-07T18:21:04.330Z,18.12
2022-08-07T18:22:58.322Z,18.08
2022-08-07T18:25:40.146Z,18.03
2022-08-07T18:28:35.760Z,18.02
2022-08-07T18:31:18.957Z,18.05
2022-08-07T18:34:37.562Z,18.04
2022-08-07T18:37:09.700Z,18.01
2022-08-07T18:40:05.542Z,17.99
2022-08-07T18:43:00.162Z,18.02
2022-08-07T18:46:25.857Z,18.06
2022-08-07T18:50:30.133Z,18.04
2022-08-07T18:52:37.506Z,18.01
2022-08-07T18:55:42.985Z,17.98
2022-08-07T18:58:15.237Z,18.00
2022-08-07T19:01:00.920Z,18.03
2022-08-07T19:06:03.371Z,18.02
2022-08-07T19:08:52.201Z,17.97
2022-08-07T19:11:35.091Z,18.01
2022-08-07T19:14:42.987Z,18.03
2022-08-07T19:17:58.922Z,18.03
2022-08-07T19:20:28.847Z,17.99
2022-08-07T19:23:19.431Z,17.96
2022-08-07T19:26:22.999Z,18.00
2022-08-07T19:31:06.249Z,18.06
2022-08-07T19:32:16.333Z,18.08
2022-08-07T19:34:56.175Z,18.06
2022-08-07T19:37:24.296Z,18.03
2022-08-07T19:40:11.794Z,18.06
2022-08-07T19:42:43.155Z,18.11
2022-08-07T19:46:04.677Z,18.13
2022-08-07T19:48:19.106Z,18.12
2022-08-07T19:50:53.366Z,18.09
2022-08-07T19:54:33.901Z,18.07
2022-08-07T19:56:59.724Z,18.09
2022-08-07T19:58:58.267Z,18.13
2022-08-07T20:01:52.850Z,18.14
2022-08-07T20:04:39.324Z,18.12
2022-08-07T20:07:09.150Z,18.08
2022-08-07T20:10:36.967Z,18.04
2022-08-07T20:12:34.742Z,18.07
2022-08-07T20:15:04.240Z,18.11
2022-08-07T20:17:38.959Z,18.12
2022-08-07T20:20:08.016Z,18.11
2022-08-07T20:22:40.756Z,18.09
2022-08-07T20:25:12.750Z,18.06
2022-08-07T20:27:54.036Z,18.08
2022-08-07T20:30:36.936Z,18.11
2022-08-07T20:33:24.520Z,18.10
2022-08-07T20:36:03.070Z,18.06
2022-08-07T20:38:31.441Z,18.03
2022-08-07T20:41:05.360Z,18.00
2022-08-07T20:43:33.517Z,18.03
2022-08-07T20:46:27.237Z,18.07
2022-08-07T20:49:00.782Z,18.10
2022-08-07T20:51:40.554Z,18.09
2022-08-07T20:54:29.801Z,18.07
2022-08-07T20:57:05.154Z,18.05
2022-08-07T21:00:08.290Z,18.08
2022-08-07T21:02:53.959Z,18.12
2022-08-07T21:05:52.802Z,18.13
2022-08-07T21:08:36.968Z,18.12
2022-08-07T21:11:14.062Z,18.11
2022-08-07T21:14:16.904Z,18.17
2022-08-07T21:16:56.882Z,18.24
2022-08-07T21:19:51.509Z,18.24
2022-08-07T21:22:25.509Z,18.22
2022-08-07T21:25:04.746Z,18.20
2022-08-07T21:28:07.942Z,18.17
2022-08-07T21:30:46.436Z,18.21
2022-08-07T21:33:41.443Z,18.25
2022-08-07T21:36:50.033Z,18.25
2022-08-07T21:39:47.436Z,18.23
2022-08-07T21:42:46.431Z,18.20
2022-08-07T21:46:09.068Z,18.24
2022-08-07T21:48:33.619Z,18.28
2022-08-07T21:51:20.133Z,18.29
2022-08-07T21:53:54.336Z,18.27
2022-08-07T21:56:37.801Z,18.25
2022-08-07T22:00:04.424Z,18.28
2022-08-07T22:02:39.428Z,18.34
2022-08-07T22:05:43.824Z,18.34
2022-08-07T22:08:07.605Z,18.32
2022-08-07T22:10:43.121Z,18.28
2022-08-07T22:13:24.298Z,18.25
2022-08-07T22:16:45.743Z,18.27
2022-08-07T22:19:29.898Z,18.31
2022-08-07T22:22:28.717Z,18.30
2022-08-07T22:25:12.088Z,18.28
2022-08-07T22:28:07.675Z,18.25
2022-08-07T22:31:56.198Z,18.27
2022-08-07T22:34:52.919Z,18.31
2022-08-07T22:38:03.921Z,18.29
2022-08-07T22:40:47.732Z,18.25
2022-08-07T22:43:19.397Z,18.21
2022-08-07T22:47:02.851Z,18.24
2022-08-07T22:49:19.217Z,18.28
2022-08-07T22:52:00.638Z,18.27
2022-08-07T22:54:41.168Z,18.25
2022-08-07T22:57:42.380Z,18.22
2022-08-07T23:00:13.098Z,18.19
2022-08-07T23:02:54.984Z,18.22
2022-08-07T23:06:14.507Z,18.27
2022-08-07T23:08:55.880Z,18.28
2022-08-07T23:11:41.246Z,18.25
2022-08-07T23:14:47.479Z,18.21
2022-08-07T23:17:41.836Z,18.17
2022-08-07T23:20:52.696Z,18.21
2022-08-07T23:24:11.437Z,18.23
2022-08-07T23:27:02.812Z,18.21
2022-08-07T23:29:43.398Z,18.15
2022-08-07T23:34:24.134Z,18.11
2022-08-07T23:36:00.027Z,18.14
2022-08-07T23:38:42.963Z,18.17
2022-08-07T23:41:33.719Z,18.16
2022-08-07T23:44:29.568Z,18.12
2022-08-07T23:47:25.767Z,18.08
2022-08-07T23:50:29.796Z,18.11
2022-08-07T23:53:15.309Z,18.16
2022-08-07T23:56:13.517Z,18.16
2022-08-07T23:59:10.819Z,18.13
